Time;durP1;ratioP1;P1;durP2;ratioP2;P2;SDS_P1;SDS_P2;PMS_P1;PMS_P2;Temp;Humidity;BMP_temperature;BMP_pressure;BME280_temperature;BME280_humidity;BME280_pressure;Samples;Min_cycle;Max_cycle;Signal;HPM_P1;HPM_P2
2021/05/04 00:01:26;;;;;;;2.55;1.52;;;;;;;25.73;40.63;95189.19;4985884;28;20026;-72
2021/05/04 00:03:51;;;;;;;2.25;1.50;;;;;;;25.76;40.60;95204.56;4990897;28;20502;-72
2021/05/04 00:06:17;;;;;;;2.13;1.40;;;;;;;25.75;39.81;95214.03;4990492;28;20037;-72
2021/05/04 00:08:42;;;;;;;2.00;1.55;;;;;;;25.72;40.30;95204.84;4990771;28;20042;-72
2021/05/04 00:11:08;;;;;;;1.67;1.50;;;;;;;25.73;39.97;95200.13;4990646;28;20034;-72
2021/05/04 00:13:33;;;;;;;2.13;1.60;;;;;;;25.70;40.34;95201.19;4990688;28;20106;-71
2021/05/04 00:15:59;;;;;;;2.40;1.60;;;;;;;25.69;40.33;95210.63;4990653;28;20026;-72
2021/05/04 00:18:24;;;;;;;1.80;1.45;;;;;;;25.71;39.86;95208.09;4990663;28;20030;-71
2021/05/04 00:20:49;;;;;;;1.77;1.50;;;;;;;25.67;39.94;95207.69;4990783;28;20027;-72
2021/05/04 00:23:15;;;;;;;1.88;1.60;;;;;;;25.68;40.66;95215.38;4990375;28;20104;-72
2021/05/04 00:25:40;;;;;;;2.70;1.58;;;;;;;25.68;39.92;95209.16;4990294;28;20406;-72
2021/05/04 00:28:06;;;;;;;1.75;1.48;;;;;;;25.68;40.66;95220.09;4990250;28;20029;-72
2021/05/04 00:30:31;;;;;;;1.75;1.50;;;;;;;25.61;40.23;95209.75;4990298;28;20520;-71
2021/05/04 00:32:57;;;;;;;1.90;1.40;;;;;;;25.67;39.88;95218.63;4989184;28;20018;-72
2021/05/04 00:35:22;;;;;;;1.50;1.33;;;;;;;25.65;40.64;95226.59;4990513;28;20429;-71
2021/05/04 00:37:48;;;;;;;1.90;1.42;;;;;;;25.65;40.54;95215.66;4989973;28;20030;-71
2021/05/04 00:40:14;;;;;;;1.75;1.48;;;;;;;25.64;40.61;95225.09;4990321;28;20105;-71
2021/05/04 00:42:39;;;;;;;3.47;1.50;;;;;;;25.60;39.90;95213.72;4989900;28;20092;-72
2021/05/04 00:45:05;;;;;;;1.65;1.40;;;;;;;25.62;40.21;95222.13;4989990;28;20030;-71
2021/05/04 00:47:31;;;;;;;2.03;1.58;;;;;;;25.61;40.46;95220.69;4990299;28;20046;-71
2021/05/04 00:49:56;;;;;;;2.70;1.63;;;;;;;25.62;40.61;95222.13;4990231;28;20414;-72
2021/05/04 00:52:22;;;;;;;1.73;1.55;;;;;;;25.58;40.42;95216.25;4989009;28;20042;-71
2021/05/04 00:54:47;;;;;;;3.40;1.40;;;;;;;25.42;39.83;95187.13;5004734;28;20042;-72
2021/05/04 00:57:13;;;;;;;1.50;1.17;;;;;;;25.59;40.62;95196.56;4989803;28;20037;-71
2021/05/04 00:59:39;;;;;;;1.40;1.30;;;;;;;25.60;39.92;95208.25;4971236;28;20035;-71
2021/05/04 01:02:04;;;;;;;1.98;1.50;;;;;;;25.61;39.74;95187.84;4985328;28;20501;-72
2021/05/04 01:04:30;;;;;;;2.00;1.55;;;;;;;25.37;40.06;95174.28;4988437;28;20425;-72
2021/05/04 01:06:55;;;;;;;1.42;1.30;;;;;;;25.60;40.63;95197.31;4988660;28;20030;-71
2021/05/04 01:09:21;;;;;;;1.58;1.48;;;;;;;25.57;39.81;95198.34;4989764;28;20037;-71
2021/05/04 01:11:46;;;;;;;1.92;1.48;;;;;;;25.56;39.85;95191.38;4989569;28;20053;-72
2021/05/04 01:14:12;;;;;;;1.63;1.30;;;;;;;25.54;40.40;95194.66;4989321;28;20037;-71
2021/05/04 01:16:42;;;;;;;1.92;1.67;;;;;;;25.53;40.32;95203.38;4989428;28;20034;-71
2021/05/04 01:19:08;;;;;;;1.85;1.50;;;;;;;25.57;39.73;95198.34;4987710;28;20019;-72
2021/05/04 01:21:34;;;;;;;2.22;1.50;;;;;;;25.57;40.55;95192.88;4989623;28;20106;-72
2021/05/04 01:23:59;;;;;;;2.78;1.60;;;;;;;25.47;40.47;95178.84;4989368;28;20422;-72
2021/05/04 01:26:25;;;;;;;2.03;1.52;;;;;;;25.56;39.89;95188.66;4989247;28;20486;-72
2021/05/04 01:28:50;;;;;;;1.42;1.30;;;;;;;25.56;39.89;95185.91;4989396;28;20026;-72
2021/05/04 01:31:16;;;;;;;2.10;1.55;;;;;;;25.54;40.30;95189.16;4989262;28;20034;-72
2021/05/04 01:33:41;;;;;;;1.67;1.33;;;;;;;25.54;40.43;95199.38;4989001;28;20114;-72
2021/05/04 01:36:07;;;;;;;1.65;1.38;;;;;;;25.54;39.87;95193.91;4989174;28;20490;-72
2021/05/04 01:38:32;;;;;;;2.08;1.52;;;;;;;25.55;40.28;95189.94;4989100;28;20042;-72
2021/05/04 01:40:58;;;;;;;2.42;1.35;;;;;;;25.54;40.06;95199.38;4989085;28;20121;-71
2021/05/04 01:43:23;;;;;;;1.67;1.40;;;;;;;25.54;40.20;95199.38;4988779;28;20485;-71
2021/05/04 01:45:49;;;;;;;2.22;1.50;;;;;;;25.51;40.59;95200.41;4989008;28;20034;-71
2021/05/04 01:48:14;;;;;;;2.05;1.40;;;;;;;25.52;40.61;95199.91;4988793;28;20042;-72
2021/05/04 01:50:39;;;;;;;2.00;1.63;;;;;;;25.50;40.54;95198.94;4988812;28;20038;-71
2021/05/04 01:53:05;;;;;;;1.83;1.48;;;;;;;25.53;40.57;95197.91;4988820;28;20031;-72
2021/05/04 01:55:30;;;;;;;1.50;1.38;;;;;;;25.46;39.74;95187.56;4988965;28;20030;-71
2021/05/04 01:57:56;;;;;;;1.73;1.20;;;;;;;25.52;40.38;95212.84;4987506;28;20453;-72
2021/05/04 02:00:21;;;;;;;1.80;1.35;;;;;;;25.53;39.84;95198.66;4986169;28;20101;-72
2021/05/04 02:02:47;;;;;;;1.50;1.38;;;;;;;25.53;40.29;95209.59;4982336;28;20069;-71
2021/05/04 02:05:13;;;;;;;2.22;1.30;;;;;;;25.53;39.87;95206.09;4988488;28;20034;-72
2021/05/04 02:07:38;;;;;;;2.42;1.60;;;;;;;25.50;39.84;95198.94;4969603;28;20039;-71
2021/05/04 02:10:04;;;;;;;1.70;1.45;;;;;;;25.51;39.78;95201.16;4969311;28;20426;-72
2021/05/04 02:12:30;;;;;;;1.75;1.45;;;;;;;25.52;40.53;95201.91;4969303;28;20018;-71
2021/05/04 02:14:55;;;;;;;1.77;1.48;;;;;;;25.50;39.73;95204.41;4969385;28;20027;-72
2021/05/04 02:17:21;;;;;;;1.60;1.50;;;;;;;25.33;40.45;95173.81;4972324;28;20074;-71
2021/05/04 02:19:46;;;;;;;2.45;1.45;;;;;;;25.51;40.43;95194.94;4973088;28;20490;-72
2021/05/04 02:22:11;;;;;;;1.73;1.58;;;;;;;25.50;40.02;95193.47;4973144;28;20035;-72
2021/05/04 02:24:37;;;;;;;1.77;1.42;;;;;;;25.51;40.58;95194.94;4986710;28;20019;-72
2021/05/04 02:27:03;;;;;;;1.42;1.30;;;;;;;25.46;40.24;95193.03;4992350;28;20083;-71
2021/05/04 02:29:28;;;;;;;1.90;1.35;;;;;;;25.49;40.07;95192.72;4992626;28;20639;-71
2021/05/04 02:31:54;;;;;;;1.73;1.25;;;;;;;25.51;39.84;95194.94;4992971;28;20034;-71
2021/05/04 02:34:19;;;;;;;3.95;1.60;;;;;;;25.39;40.43;95177.22;4992637;28;20035;-72
2021/05/04 02:36:44;;;;;;;2.13;1.40;;;;;;;25.50;40.50;95188.00;4992288;28;20402;-72
2021/05/04 02:39:10;;;;;;;2.40;1.40;;;;;;;25.48;40.50;95196.00;4992621;28;20061;-72
2021/05/04 02:41:35;;;;;;;2.13;1.35;;;;;;;25.47;40.01;95206.19;4990833;28;20030;-72
2021/05/04 02:44:01;;;;;;;1.80;1.48;;;;;;;25.50;39.72;95204.41;5007259;28;20060;-72
2021/05/04 02:46:30;;;;;;;1.63;1.20;;;;;;;25.45;39.68;95191.56;4992057;28;20026;-72
2021/05/04 02:48:56;;;;;;;1.65;1.42;;;;;;;25.46;40.12;95198.50;4992290;28;20513;-71
2021/05/04 02:51:21;;;;;;;1.70;1.20;;;;;;;25.47;39.88;95211.66;4992281;28;20030;-72
2021/05/04 02:53:47;;;;;;;2.47;1.48;;;;;;;25.46;40.38;95210.19;4992168;28;20501;-72
2021/05/04 02:56:12;;;;;;;1.63;1.33;;;;;;;25.48;39.91;95223.34;4991525;28;20465;-71
2021/05/04 02:58:38;;;;;;;1.77;1.52;;;;;;;25.46;40.53;95221.13;4986298;28;20508;-71
2021/05/04 03:01:03;;;;;;;1.67;1.40;;;;;;;25.47;39.65;95219.13;4991610;28;20088;-72
2021/05/04 03:03:29;;;;;;;2.15;1.30;;;;;;;25.48;39.67;95217.88;4990019;28;20085;-72
2021/05/04 03:05:54;;;;;;;2.85;1.50;;;;;;;25.48;39.71;95217.88;4972715;28;20031;-72
2021/05/04 03:08:20;;;;;;;1.40;1.27;;;;;;;25.29;40.36;95200.75;4972563;28;20027;-72
2021/05/04 03:10:45;;;;;;;2.45;1.42;;;;;;;25.45;39.90;95224.38;4972163;28;20038;-71
2021/05/04 03:13:11;;;;;;;1.80;1.23;;;;;;;25.44;40.05;95228.34;4972525;28;20490;-72
2021/05/04 03:15:36;;;;;;;1.60;1.30;;;;;;;25.46;39.90;95220.38;4970823;28;20018;-72
2021/05/04 03:18:02;;;;;;;1.92;1.50;;;;;;;25.45;40.03;95236.03;4972159;28;20026;-72
2021/05/04 03:20:28;;;;;;;1.42;1.20;;;;;;;25.47;39.55;95235.53;4972205;28;20487;-72
2021/05/04 03:22:53;;;;;;;1.70;1.30;;;;;;;25.46;40.33;95236.78;4984870;28;20026;-72
2021/05/04 03:25:19;;;;;;;1.73;1.20;;;;;;;25.45;39.78;95246.25;4991408;28;20041;-72
2021/05/04 03:27:44;;;;;;;4.60;1.30;;;;;;;25.44;40.34;95239.28;4990327;28;20022;-72
2021/05/04 03:30:10;;;;;;;1.83;1.40;;;;;;;25.39;39.89;95237.38;4991494;28;20027;-72
2021/05/04 03:32:40;;;;;;;1.67;1.17;;;;;;;25.42;40.07;95236.34;5006237;28;20030;-72
2021/05/04 03:35:06;;;;;;;1.65;1.23;;;;;;;25.45;39.77;95246.97;5005871;28;20036;-71
2021/05/04 03:37:32;;;;;;;1.55;1.25;;;;;;;25.45;39.63;95240.78;4991322;28;20120;-71
2021/05/04 03:39:57;;;;;;;1.33;1.23;;;;;;;25.39;39.74;95254.50;4991369;28;20022;-71
2021/05/04 03:42:23;;;;;;;2.28;1.40;;;;;;;25.45;40.29;95246.25;5006398;28;20033;-72
2021/05/04 03:44:48;;;;;;;1.80;1.33;;;;;;;25.44;40.02;95250.22;4986872;28;20034;-72
2021/05/04 03:47:14;;;;;;;1.65;1.40;;;;;;;25.19;39.49;95213.28;5006025;28;20041;-72
2021/05/04 03:49:39;;;;;;;1.40;1.30;;;;;;;25.44;39.52;95240.03;4991176;28;20134;-72
2021/05/04 03:52:05;;;;;;;1.77;1.30;;;;;;;25.45;40.08;95241.50;4990948;28;20029;-72
2021/05/04 03:54:30;;;;;;;1.60;1.35;;;;;;;25.48;39.79;95247.94;5001025;28;20481;-72
2021/05/04 03:56:57;;;;;;;1.88;1.17;;;;;;;25.47;39.93;95249.19;5005568;28;20018;-73
2021/05/04 03:59:23;;;;;;;2.67;1.60;;;;;;;25.29;36.42;95225.34;4983056;28;20034;-77
2021/05/04 04:01:48;;;;;;;2.20;1.42;;;;;;;25.10;35.71;95199.97;4988448;28;20118;-77
2021/05/04 04:04:14;;;;;;;2.33;1.73;;;;;;;25.23;35.70;95240.31;4990496;28;20479;-76
2021/05/04 04:06:39;;;;;;;2.75;1.50;;;;;;;25.16;34.47;95252.56;4979655;28;20684;-76
2021/05/04 04:09:05;;;;;;;2.28;1.50;;;;;;;25.10;34.94;95248.44;4981795;28;20018;-76
2021/05/04 04:11:31;;;;;;;2.38;1.67;;;;;;;25.01;33.94;95246.78;4981481;28;20026;-75
2021/05/04 04:13:56;;;;;;;3.70;1.85;;;;;;;24.95;33.72;95248.09;4979623;28;20019;-74
2021/05/04 04:16:21;;;;;;;2.92;1.65;;;;;;;24.90;33.41;95252.38;4978379;28;20061;-72
2021/05/04 04:18:47;;;;;;;3.35;1.80;;;;;;;24.82;33.67;95245.25;4986776;28;20061;-79
2021/05/04 04:21:13;;;;;;;3.20;1.58;;;;;;;24.83;33.47;95244.72;4985380;28;20476;-77
2021/05/04 04:23:38;;;;;;;3.10;2.08;;;;;;;24.75;32.99;95234.16;4991705;28;20053;-80
2021/05/04 04:26:04;;;;;;;2.65;1.80;;;;;;;24.84;33.17;95254.41;5008255;28;20031;-77
2021/05/04 04:28:29;;;;;;;3.55;1.52;;;;;;;24.82;32.93;95251.44;5009813;28;20014;-76
2021/05/04 04:30:54;;;;;;;2.17;1.50;;;;;;;24.89;32.53;95247.41;5002253;28;20026;-77
2021/05/04 04:33:26;;;;;;;3.17;1.73;;;;;;;24.86;32.61;95251.91;4999179;28;20021;-77
2021/05/04 04:35:52;;;;;;;2.03;1.67;;;;;;;24.92;32.06;95255.31;4989674;28;20061;-76
2021/05/04 04:38:17;;;;;;;2.15;1.70;;;;;;;24.96;32.19;95261.22;4998594;28;20023;-77
2021/05/04 04:40:44;;;;;;;3.03;1.55;;;;;;;24.96;31.82;95265.94;4995967;28;20048;-77
2021/05/04 04:43:09;;;;;;;4.05;2.22;;;;;;;24.90;32.38;95263.28;4982936;28;20039;-76
2021/05/04 04:45:36;;;;;;;2.63;1.85;;;;;;;24.71;32.27;95228.22;4985496;28;20046;-76
2021/05/04 04:48:01;;;;;;;3.72;1.77;;;;;;;25.00;31.97;95272.63;4983295;28;20493;-77
2021/05/04 04:50:26;;;;;;;3.70;1.70;;;;;;;24.87;31.82;95237.00;4987478;28;20026;-78
2021/05/04 04:52:52;;;;;;;2.97;1.60;;;;;;;25.09;31.94;95269.53;4985765;28;20026;-76
2021/05/04 04:55:17;;;;;;;2.78;1.80;;;;;;;25.08;31.96;95262.63;4985055;28;20022;-75
2021/05/04 04:57:43;;;;;;;2.70;1.67;;;;;;;25.09;31.09;95263.34;4987096;28;20045;-76
2021/05/04 05:00:09;;;;;;;4.75;2.13;;;;;;;25.03;31.38;95263.41;4986954;28;20031;-72
2021/05/04 05:02:35;;;;;;;3.00;1.95;;;;;;;25.00;31.26;95256.22;4985275;28;20057;-73
2021/05/04 05:05:00;;;;;;;2.28;1.83;;;;;;;25.15;31.55;95264.75;4981756;28;20033;-77
2021/05/04 05:07:25;;;;;;;4.03;1.77;;;;;;;25.20;31.00;95266.72;4988270;28;20425;-73
2021/05/04 05:09:51;;;;;;;3.05;1.83;;;;;;;25.10;31.60;95259.38;4995642;28;20025;-73
2021/05/04 05:12:16;;;;;;;3.88;1.73;;;;;;;25.11;31.55;95272.53;4986641;28;20022;-76
2021/05/04 05:14:42;;;;;;;2.92;1.83;;;;;;;25.09;31.13;95269.53;4980215;28;20026;-77
2021/05/04 05:17:10;;;;;;;4.30;1.67;;;;;;;24.99;31.56;95254.00;4984380;28;20132;-80
2021/05/04 05:19:35;;;;;;;3.65;2.00;;;;;;;24.99;31.43;95243.84;4987597;28;20030;-78
2021/05/04 05:22:01;;;;;;;2.88;1.60;;;;;;;25.11;31.12;95264.31;4986042;28;20048;-78
2021/05/04 05:24:26;;;;;;;5.60;1.90;;;;;;;25.18;31.62;95265.72;4986111;28;20022;-73
2021/05/04 05:26:52;;;;;;;2.50;1.65;;;;;;;25.20;31.43;95268.69;4987907;28;20030;-75
2021/05/04 05:29:17;;;;;;;2.85;1.58;;;;;;;25.10;33.12;95227.31;4991576;28;20093;-75
2021/05/04 05:31:43;;;;;;;3.88;1.80;;;;;;;25.31;31.13;95264.56;4969170;28;20581;-75
2021/05/04 05:34:08;;;;;;;2.63;1.65;;;;;;;25.32;32.39;95273.53;4988171;28;20502;-76
2021/05/04 05:36:34;;;;;;;3.10;2.13;;;;;;;25.48;33.30;95261.63;5008516;28;20436;-75
2021/05/04 05:39:00;;;;;;;2.83;1.77;;;;;;;25.39;32.89;95253.78;4988681;28;20022;-76
2021/05/04 05:41:25;;;;;;;3.03;1.98;;;;;;;25.15;32.99;95221.03;4985179;28;20076;-77
2021/05/04 05:43:50;;;;;;;2.53;1.70;;;;;;;25.39;32.21;95254.50;4986951;28;20452;-82
2021/05/04 05:46:16;;;;;;;3.33;1.90;;;;;;;25.38;32.21;95246.81;4985583;28;20034;-76
2021/05/04 05:48:42;;;;;;;4.32;1.80;;;;;;;25.18;32.15;95211.78;4985144;28;20096;-75
2021/05/04 05:51:08;;;;;;;3.67;2.10;;;;;;;25.42;31.87;95236.34;4885887;28;20202;-73
2021/05/04 05:53:35;;;;;;;3.90;1.95;;;;;;;25.37;32.10;95234.44;4981506;28;20545;-74
2021/05/04 05:56:00;;;;;;;3.65;2.05;;;;;;;25.42;31.82;95225.41;4978221;28;20034;-73
2021/05/04 05:58:25;;;;;;;4.07;2.40;;;;;;;25.54;30.44;95226.72;4973212;28;20527;-75
2021/05/04 06:00:52;;;;;;;3.85;2.13;;;;;;;25.55;29.72;95233.69;4973609;28;20022;-77
2021/05/04 06:03:17;;;;;;;5.68;2.33;;;;;;;25.28;30.53;95214.94;4985172;28;20046;-70
2021/05/04 06:05:43;;;;;;;3.78;2.08;;;;;;;25.23;30.81;95212.97;4985402;28;20432;-76
2021/05/04 06:08:08;;;;;;;4.70;2.28;;;;;;;25.39;28.72;95215.50;4987418;28;20022;-77
2021/05/04 06:10:34;;;;;;;3.85;2.22;;;;;;;25.31;31.20;95214.63;4981744;28;20037;-70
2021/05/04 06:13:05;;;;;;;3.88;1.77;;;;;;;25.28;30.85;95215.66;4910261;28;20433;-75
2021/05/04 06:15:30;;;;;;;2.95;1.60;;;;;;;25.32;31.19;95208.63;4994474;28;20019;-75
2021/05/04 06:17:56;;;;;;;3.20;1.80;;;;;;;25.32;31.06;95205.19;4984035;28;20410;-76
2021/05/04 06:20:21;;;;;;;4.75;2.28;;;;;;;25.31;30.96;95211.88;4982609;28;20494;-72
2021/05/04 06:22:47;;;;;;;3.50;2.00;;;;;;;25.39;31.45;95205.28;4988226;28;20656;-72
2021/05/04 06:25:12;;;;;;;4.60;1.85;;;;;;;25.44;31.32;95201.00;4989661;28;20066;-74
2021/05/04 06:27:38;;;;;;;2.47;1.88;;;;;;;25.45;30.87;95186.09;4988655;28;20033;-73
2021/05/04 06:30:08;;;;;;;3.10;1.90;;;;;;;25.50;30.81;95188.00;4985231;28;20524;-72
2021/05/04 06:32:34;;;;;;;2.65;1.90;;;;;;;25.47;31.24;95197.22;4983662;28;20022;-74
2021/05/04 06:34:59;;;;;;;4.45;1.98;;;;;;;25.57;31.26;95203.81;4983793;28;20029;-72
2021/05/04 06:37:25;;;;;;;3.92;1.83;;;;;;;25.65;30.88;95193.78;4947591;28;20501;-72
2021/05/04 06:39:50;;;;;;;3.65;1.83;;;;;;;25.66;30.58;95195.25;4983476;28;20048;-67
2021/05/04 06:42:16;;;;;;;5.47;1.77;;;;;;;25.69;31.00;95189.47;4982806;28;20456;-72
2021/05/04 06:44:41;;;;;;;2.95;1.75;;;;;;;25.84;30.24;95185.03;4988590;28;20035;-71
2021/05/04 06:47:07;;;;;;;2.67;1.90;;;;;;;25.85;30.64;95181.03;4982420;28;20039;-70
2021/05/04 06:49:32;;;;;;;3.55;1.80;;;;;;;25.89;30.21;95186.94;4989448;28;20049;-76
2021/05/04 06:51:58;;;;;;;4.45;2.35;;;;;;;25.80;30.52;95192.78;4980820;28;20069;-74
2021/05/04 06:54:23;;;;;;;5.60;2.35;;;;;;;25.92;29.10;95185.91;4987196;28;20030;-74
2021/05/04 06:56:49;;;;;;;3.00;2.08;;;;;;;25.98;28.52;95178.34;4978086;28;20081;-73
2021/05/04 06:59:15;;;;;;;3.25;1.55;;;;;;;25.79;30.05;95172.16;4985590;28;20088;-73
2021/05/04 07:01:40;;;;;;;3.05;1.75;;;;;;;25.71;30.01;95147.94;4979663;28;20034;-72
2021/05/04 07:04:06;;;;;;;3.83;1.80;;;;;;;25.82;30.26;95165.66;4985376;28;20053;-73
2021/05/04 07:06:32;;;;;;;3.90;1.80;;;;;;;25.92;29.74;95174.94;4968614;28;20524;-73
2021/05/04 07:08:57;;;;;;;5.63;1.67;;;;;;;26.01;30.09;95166.34;4987060;28;20030;-74
2021/05/04 07:11:23;;;;;;;3.33;1.70;;;;;;;25.97;29.62;95160.44;4986651;28;20034;-75
2021/05/04 07:13:48;;;;;;;2.72;1.50;;;;;;;26.07;30.16;95164.25;4987050;28;20030;-75
2021/05/04 07:16:14;;;;;;;2.40;1.42;;;;;;;26.09;29.55;95161.72;4987850;28;20026;-74
2021/05/04 07:18:39;;;;;;;3.38;1.63;;;;;;;25.90;30.14;95144.63;4986638;28;20034;-75
2021/05/04 07:21:09;;;;;;;2.97;1.60;;;;;;;26.13;29.73;95153.19;4985765;28;20421;-73
2021/05/04 07:23:35;;;;;;;3.38;1.63;;;;;;;26.22;29.87;95153.53;4993973;28;20026;-71
2021/05/04 07:26:01;;;;;;;5.13;1.80;;;;;;;26.35;29.38;95150.81;4988710;28;20041;-72
2021/05/04 07:28:27;;;;;;;2.45;1.70;;;;;;;26.35;29.71;95145.34;4994115;28;20030;-74
2021/05/04 07:30:53;;;;;;;3.00;1.70;;;;;;;26.46;29.32;95151.38;4982801;28;20042;-73
2021/05/04 07:33:19;;;;;;;3.75;1.75;;;;;;;26.37;29.35;95138.09;4991350;28;20045;-72
2021/05/04 07:35:47;;;;;;;3.97;1.98;;;;;;;26.39;29.03;95145.78;4982932;28;20030;-77
2021/05/04 07:38:13;;;;;;;3.00;2.00;;;;;;;26.37;29.00;95149.06;4980732;28;20077;-73
2021/05/04 07:40:39;;;;;;;3.17;1.98;;;;;;;26.52;28.78;95148.53;4987160;28;20488;-75
2021/05/04 07:43:04;;;;;;;3.05;1.52;;;;;;;26.45;28.75;95154.63;4986619;28;20027;-76
2021/05/04 07:45:30;;;;;;;3.47;1.65;;;;;;;26.50;29.33;95145.56;4985875;28;20101;-75
2021/05/04 07:47:57;;;;;;;3.22;1.63;;;;;;;26.50;28.63;95146.31;4984602;28;20046;-73
2021/05/04 07:50:24;;;;;;;3.00;1.50;;;;;;;26.57;28.28;95147.69;4982632;28;20034;-73
2021/05/04 07:52:49;;;;;;;2.63;1.42;;;;;;;26.52;28.42;95149.28;4982645;28;20037;-72
2021/05/04 07:55:15;;;;;;;2.42;1.30;;;;;;;26.54;27.87;95135.78;4985320;28;20031;-73
2021/05/04 07:57:40;;;;;;;3.72;1.70;;;;;;;26.55;28.29;95136.53;4982854;28;20023;-70
2021/05/04 08:00:06;;;;;;;2.83;1.70;;;;;;;26.59;27.88;95143.16;4985009;28;20029;-71
2021/05/04 08:02:31;;;;;;;2.70;1.70;;;;;;;26.63;28.14;95148.31;4981009;28;20073;-72
2021/05/04 08:04:57;;;;;;;2.22;1.77;;;;;;;26.54;28.16;95107.66;4984876;28;20034;-73
2021/05/04 08:07:22;;;;;;;4.47;1.50;;;;;;;26.73;28.45;95130.19;4983281;28;20054;-70
2021/05/04 08:09:48;;;;;;;4.05;1.40;;;;;;;26.48;27.84;95098.81;4987093;28;20057;-70
2021/05/04 08:12:13;;;;;;;2.90;1.63;;;;;;;26.72;27.79;95128.72;4985740;28;20062;-72
2021/05/04 08:14:39;;;;;;;3.70;1.50;;;;;;;26.82;27.55;95122.28;4989548;28;20482;-72
2021/05/04 08:17:10;;;;;;;3.05;1.40;;;;;;;26.80;27.19;95117.31;4983830;28;20031;-73
2021/05/04 08:19:36;;;;;;;3.00;1.55;;;;;;;26.85;27.54;95110.97;4990563;28;20457;-72
2021/05/04 08:22:01;;;;;;;2.60;1.40;;;;;;;26.80;27.81;95091.91;4980133;28;20022;-74
2021/05/04 08:24:26;;;;;;;4.75;1.50;;;;;;;27.03;27.96;95110.13;4994186;28;20049;-78
2021/05/04 08:26:52;;;;;;;6.90;1.70;;;;;;;27.12;27.96;95106.94;4996075;28;20591;-78
2021/05/04 08:29:17;;;;;;;2.95;1.30;;;;;;;27.07;27.89;95099.59;4998529;28;20517;-75
2021/05/04 08:31:43;;;;;;;2.17;1.40;;;;;;;27.14;27.75;95112.63;4945542;28;20061;-74
2021/05/04 08:34:09;;;;;;;2.72;1.30;;;;;;;27.27;27.54;95107.13;4987207;28;20065;-78
2021/05/04 08:36:35;;;;;;;2.95;1.50;;;;;;;27.34;27.13;95101.72;4993823;28;20037;-78
2021/05/04 08:39:01;;;;;;;2.65;1.40;;;;;;;27.32;26.82;95098.03;4997459;28;20022;-75
2021/05/04 08:41:26;;;;;;;1.63;1.20;;;;;;;27.21;26.78;95103.03;5003624;28;20063;-75
2021/05/04 08:43:52;;;;;;;2.78;1.42;;;;;;;27.37;27.03;95111.63;4998139;28;20080;-75
2021/05/04 08:46:20;;;;;;;2.47;1.40;;;;;;;27.47;27.14;95093.44;4994312;28;20485;-75
2021/05/04 08:48:46;;;;;;;4.35;1.52;;;;;;;27.55;26.96;95082.53;4989487;28;20038;-74
2021/05/04 08:51:12;;;;;;;5.50;1.52;;;;;;;27.73;26.71;95088.56;4988176;28;20057;-76
2021/05/04 08:53:37;;;;;;;1.92;1.33;;;;;;;27.90;26.96;95086.13;4988100;28;20022;-74
2021/05/04 08:56:03;;;;;;;4.13;1.73;;;;;;;28.03;26.59;95077.84;4984752;28;20387;-75
2021/05/04 08:58:30;;;;;;;3.03;1.50;;;;;;;28.12;26.27;95091.09;4986505;28;20524;-75
2021/05/04 09:00:56;;;;;;;3.22;1.48;;;;;;;28.14;26.32;95077.56;5001500;28;20081;-75
2021/05/04 09:03:35;;;;;;;3.45;1.20;;;;;;;28.15;26.18;95073.56;4979906;28;20050;-76
2021/05/04 09:06:06;;;;;;;3.08;1.50;;;;;;;27.95;26.39;95071.56;4984975;28;20041;-76
2021/05/04 09:16:38;;;;;;;3.58;1.38;;;;;;;27.95;26.94;95077.06;4979727;28;20041;-72
2021/05/04 09:21:38;;;;;;;3.55;1.38;;;;;;;27.91;26.73;95057.44;4978332;28;20042;-76
2021/05/04 09:24:20;;;;;;;2.33;1.38;;;;;;;28.01;26.92;95057.66;4982103;28;20502;-71
2021/05/04 09:26:45;;;;;;;3.10;1.80;;;;;;;27.96;27.56;95042.81;4975427;28;20033;-75
2021/05/04 09:29:11;;;;;;;4.03;1.45;;;;;;;28.11;26.93;95034.69;4982133;28;20026;-71
2021/05/04 09:31:37;;;;;;;3.28;1.50;;;;;;;28.17;26.65;95032.53;4982477;28;20030;-70
2021/05/04 09:34:21;;;;;;;4.72;1.70;;;;;;;28.22;27.32;95045.41;4981916;28;20049;-70
2021/05/04 09:36:50;;;;;;;4.43;1.50;;;;;;;28.15;27.32;95040.59;4982665;28;20417;-71
2021/05/04 09:39:29;;;;;;;4.97;1.77;;;;;;;28.22;27.43;95056.41;4982155;28;20086;-71
2021/05/04 09:41:56;;;;;;;4.97;1.50;;;;;;;28.41;27.55;95034.88;4981738;28;20095;-75
2021/05/04 09:44:46;;;;;;;2.90;1.30;;;;;;;28.47;27.21;95027.22;4980861;28;20080;-75
2021/05/04 09:47:12;;;;;;;2.25;1.25;;;;;;;28.56;27.16;95032.19;4974038;28;20498;-72
2021/05/04 09:49:38;;;;;;;4.03;1.52;;;;;;;28.69;27.04;95021.13;4988881;28;20034;-72
2021/05/04 09:52:48;;;;;;;3.17;1.52;;;;;;;28.73;26.48;95022.97;4987029;28;20038;-73
2021/05/04 09:55:16;;;;;;;3.28;1.75;;;;;;;28.75;27.21;95020.41;4947592;28;20414;-72
2021/05/04 09:57:50;;;;;;;2.00;1.40;;;;;;;28.83;25.95;95015.69;4941143;28;20027;-73
2021/05/04 10:00:23;;;;;;;2.60;1.48;;;;;;;28.93;26.48;95019.34;4971191;28;20049;-74
2021/05/04 10:02:48;;;;;;;2.53;1.50;;;;;;;28.94;26.66;95014.59;4974100;28;20510;-74
2021/05/04 10:05:17;;;;;;;3.97;1.70;;;;;;;28.97;26.30;95019.75;4977195;28;20038;-75
2021/05/04 10:07:43;;;;;;;1.98;1.38;;;;;;;28.95;26.91;95022.31;5000190;28;20037;-74
2021/05/04 10:10:10;;;;;;;2.22;1.40;;;;;;;28.92;26.49;95017.91;5009211;28;20033;-73
2021/05/04 10:12:40;;;;;;;2.50;1.40;;;;;;;29.02;26.23;95005.06;4990037;28;20061;-74
2021/05/04 10:15:07;;;;;;;2.97;1.35;;;;;;;29.00;26.62;95002.16;4990530;28;20029;-73
2021/05/04 10:17:36;;;;;;;3.42;1.60;;;;;;;28.98;26.14;94993.69;5004000;28;20569;-73
2021/05/04 10:20:17;;;;;;;2.28;1.65;;;;;;;29.08;26.74;94991.88;4998571;28;20025;-74
2021/05/04 10:22:42;;;;;;;2.65;1.58;;;;;;;29.10;26.17;95005.81;5003632;28;20030;-73
2021/05/04 10:25:16;;;;;;;3.83;1.98;;;;;;;29.15;26.69;95007.69;4997199;28;20037;-71
2021/05/04 10:27:43;;;;;;;3.33;1.50;;;;;;;29.14;26.74;95000.69;4990336;28;20030;-72
2021/05/04 10:30:09;;;;;;;3.13;1.50;;;;;;;29.11;26.61;94979.78;4996475;28;20418;-74
2021/05/04 10:32:50;;;;;;;2.42;1.55;;;;;;;29.19;26.04;94986.03;4985843;28;20031;-74
2021/05/04 10:35:31;;;;;;;3.72;1.70;;;;;;;29.28;26.07;94988.28;4996280;28;20034;-73
2021/05/04 10:37:57;;;;;;;3.88;1.60;;;;;;;29.31;25.88;94987.16;4989557;28;20054;-73
2021/05/04 10:40:25;;;;;;;2.65;1.60;;;;;;;29.35;26.54;94993.06;4998742;28;20509;-73
2021/05/04 10:42:51;;;;;;;2.45;1.65;;;;;;;29.22;26.21;94962.94;4971371;28;20037;-73
2021/05/04 10:45:16;;;;;;;3.63;2.00;;;;;;;29.43;26.54;94977.28;4984023;28;20056;-73
2021/05/04 10:47:42;;;;;;;2.97;1.85;;;;;;;29.37;26.84;94968.47;4993035;28;20405;-74
2021/05/04 10:50:22;;;;;;;3.40;1.80;;;;;;;29.35;26.56;94954.53;4981586;28;20441;-74
2021/05/04 10:52:48;;;;;;;2.55;1.77;;;;;;;29.56;26.14;94957.84;4994919;28;20034;-72
2021/05/04 10:55:13;;;;;;;3.38;1.60;;;;;;;29.59;26.11;94953.97;4990007;28;20026;-70
2021/05/04 10:58:00;;;;;;;3.53;1.90;;;;;;;29.52;25.71;94946.44;4983033;28;20042;-71
2021/05/04 11:00:52;;;;;;;4.22;1.65;;;;;;;29.48;26.46;94940.59;4979186;28;20030;-75
2021/05/04 11:03:30;;;;;;;2.60;1.63;;;;;;;29.39;26.93;94932.91;4991181;28;20053;-71
2021/05/04 11:05:58;;;;;;;3.85;1.67;;;;;;;29.17;26.49;94903.31;4986283;28;20031;-75
2021/05/04 11:08:24;;;;;;;3.65;1.85;;;;;;;29.16;26.30;94932.09;4981880;28;20528;-76
2021/05/04 11:11:18;;;;;;;6.40;2.17;;;;;;;28.80;25.50;94928.78;4986208;28;20049;-75
2021/05/04 11:13:47;;;;;;;3.67;2.03;;;;;;;29.12;26.16;94931.75;4990177;28;20109;-74
2021/05/04 11:16:41;;;;;;;3.08;1.70;;;;;;;29.00;25.22;94936.16;4975965;28;20076;-75
2021/05/04 11:19:16;;;;;;;3.83;2.00;;;;;;;28.82;25.24;94931.72;4996688;28;20128;-75
2021/05/04 11:21:52;;;;;;;3.95;2.03;;;;;;;28.72;25.34;94928.03;4990510;28;20030;-74
2021/05/04 11:24:22;;;;;;;4.22;2.10;;;;;;;28.81;25.33;94919.25;4994789;28;20023;-75
2021/05/04 11:26:57;;;;;;;2.55;1.75;;;;;;;28.70;25.06;94910.63;4988448;28;20417;-73
2021/05/04 11:29:25;;;;;;;4.95;2.00;;;;;;;28.78;25.03;94903.13;4996523;28;20041;-74
2021/05/04 11:31:52;;;;;;;3.90;2.40;;;;;;;28.76;25.28;94911.91;4994011;28;20440;-71
2021/05/04 11:34:38;;;;;;;3.13;2.05;;;;;;;28.42;25.52;94860.53;4990404;28;20065;-71
2021/05/04 11:37:04;;;;;;;4.32;1.70;;;;;;;29.06;25.55;94900.19;4985437;28;20034;-72
2021/05/04 11:39:30;;;;;;;3.85;1.95;;;;;;;29.15;24.80;94903.16;4991334;28;20076;-74
2021/05/04 11:42:00;;;;;;;5.25;2.20;;;;;;;29.20;24.32;94916.72;4981803;28;20034;-72
2021/05/04 11:44:30;;;;;;;5.30;2.17;;;;;;;28.70;24.92;94885.13;4990210;28;20026;-70